sensor_id;sensor_type;location;lat;lon;timestamp;P1;durP1;ratioP1;P2;durP2;ratioP2
14030;SDS011;7090;49.436;8.490;2023-11-19T00:00:54;3.57;;;3.27;;
14030;SDS011;7090;49.436;8.490;2023-11-19T00:03:21;4.47;;;3.00;;
14030;SDS011;7090;49.436;8.490;2023-11-19T00:05:46;5.30;;;3.83;;
14030;SDS011;7090;49.436;8.490;2023-11-19T00:08:13;3.33;;;3.13;;
14030;SDS011;7090;49.436;8.490;2023-11-19T00:10:38;3.60;;;3.30;;
14030;SDS011;7090;49.436;8.490;2023-11-19T00:13:04;3.30;;;3.07;;
14030;SDS011;7090;49.436;8.490;2023-11-19T00:15:29;4.23;;;3.93;;
14030;SDS011;7090;49.436;8.490;2023-11-19T00:17:55;2.97;;;2.77;;
14030;SDS011;7090;49.436;8.490;2023-11-19T00:20:20;3.77;;;3.47;;
14030;SDS011;7090;49.436;8.490;2023-11-19T00:22:49;4.83;;;3.60;;
14030;SDS011;7090;49.436;8.490;2023-11-19T00:25:18;3.10;;;2.90;;
14030;SDS011;7090;49.436;8.490;2023-11-19T00:27:44;2.70;;;2.60;;
14030;SDS011;7090;49.436;8.490;2023-11-19T00:30:09;3.37;;;3.07;;
14030;SDS011;7090;49.436;8.490;2023-11-19T00:32:35;3.23;;;3.03;;
14030;SDS011;7090;49.436;8.490;2023-11-19T00:35:03;2.37;;;2.27;;
14030;SDS011;7090;49.436;8.490;2023-11-19T00:37:29;2.60;;;2.50;;
14030;SDS011;7090;49.436;8.490;2023-11-19T00:39:55;3.03;;;2.77;;
14030;SDS011;7090;49.436;8.490;2023-11-19T00:42:23;2.90;;;2.70;;
14030;SDS011;7090;49.436;8.490;2023-11-19T00:44:50;3.10;;;2.43;;
14030;SDS011;7090;49.436;8.490;2023-11-19T00:47:16;2.20;;;2.10;;
14030;SDS011;7090;49.436;8.490;2023-11-19T00:49:41;2.43;;;2.23;;
14030;SDS011;7090;49.436;8.490;2023-11-19T00:52:07;3.00;;;2.00;;
14030;SDS011;7090;49.436;8.490;2023-11-19T00:54:33;2.33;;;2.13;;
14030;SDS011;7090;49.436;8.490;2023-11-19T00:56:59;2.40;;;2.20;;
14030;SDS011;7090;49.436;8.490;2023-11-19T00:59:26;2.37;;;2.20;;
14030;SDS011;7090;49.436;8.490;2023-11-19T01:01:53;3.07;;;2.70;;
14030;SDS011;7090;49.436;8.490;2023-11-19T01:04:19;2.70;;;2.20;;
14030;SDS011;7090;49.436;8.490;2023-11-19T01:06:44;1.80;;;1.70;;
14030;SDS011;7090;49.436;8.490;2023-11-19T01:09:10;2.70;;;2.50;;
14030;SDS011;7090;49.436;8.490;2023-11-19T01:11:36;2.30;;;2.10;;
14030;SDS011;7090;49.436;8.490;2023-11-19T01:14:01;3.13;;;2.60;;
14030;SDS011;7090;49.436;8.490;2023-11-19T01:16:27;1.50;;;1.50;;
14030;SDS011;7090;49.436;8.490;2023-11-19T01:18:53;2.10;;;2.00;;
14030;SDS011;7090;49.436;8.490;2023-11-19T01:21:18;1.97;;;1.87;;
14030;SDS011;7090;49.436;8.490;2023-11-19T01:23:44;2.00;;;1.90;;
14030;SDS011;7090;49.436;8.490;2023-11-19T01:26:11;2.80;;;2.60;;
14030;SDS011;7090;49.436;8.490;2023-11-19T01:28:38;1.63;;;1.63;;
14030;SDS011;7090;49.436;8.490;2023-11-19T01:31:11;2.10;;;2.00;;
14030;SDS011;7090;49.436;8.490;2023-11-19T01:33:39;1.80;;;1.70;;
14030;SDS011;7090;49.436;8.490;2023-11-19T01:36:06;2.13;;;1.90;;
14030;SDS011;7090;49.436;8.490;2023-11-19T01:38:33;2.03;;;1.90;;
14030;SDS011;7090;49.436;8.490;2023-11-19T01:40:59;2.10;;;1.97;;
14030;SDS011;7090;49.436;8.490;2023-11-19T01:43:32;1.37;;;1.37;;
14030;SDS011;7090;49.436;8.490;2023-11-19T01:46:06;2.23;;;2.03;;
14030;SDS011;7090;49.436;8.490;2023-11-19T01:48:35;2.00;;;1.90;;
14030;SDS011;7090;49.436;8.490;2023-11-19T01:51:06;2.10;;;2.00;;
14030;SDS011;7090;49.436;8.490;2023-11-19T01:53:33;1.77;;;1.67;;
14030;SDS011;7090;49.436;8.490;2023-11-19T01:56:00;1.77;;;1.67;;
14030;SDS011;7090;49.436;8.490;2023-11-19T01:58:27;2.03;;;1.93;;
14030;SDS011;7090;49.436;8.490;2023-11-19T02:00:54;1.80;;;1.70;;
14030;SDS011;7090;49.436;8.490;2023-11-19T02:03:21;2.03;;;1.93;;
14030;SDS011;7090;49.436;8.490;2023-11-19T02:05:47;1.97;;;1.87;;
14030;SDS011;7090;49.436;8.490;2023-11-19T02:08:14;3.80;;;2.20;;
14030;SDS011;7090;49.436;8.490;2023-11-19T02:10:40;2.13;;;2.03;;
14030;SDS011;7090;49.436;8.490;2023-11-19T02:13:05;1.67;;;1.60;;
14030;SDS011;7090;49.436;8.490;2023-11-19T02:15:31;2.07;;;1.97;;
14030;SDS011;7090;49.436;8.490;2023-11-19T02:18:16;1.73;;;1.70;;
14030;SDS011;7090;49.436;8.490;2023-11-19T02:20:47;2.00;;;1.90;;
14030;SDS011;7090;49.436;8.490;2023-11-19T02:23:14;2.23;;;2.13;;
14030;SDS011;7090;49.436;8.490;2023-11-19T02:25:40;2.37;;;2.27;;
14030;SDS011;7090;49.436;8.490;2023-11-19T02:28:06;1.83;;;1.80;;
14030;SDS011;7090;49.436;8.490;2023-11-19T02:30:33;2.07;;;1.97;;
14030;SDS011;7090;49.436;8.490;2023-11-19T02:32:58;2.03;;;1.93;;
14030;SDS011;7090;49.436;8.490;2023-11-19T02:35:28;2.40;;;2.20;;
14030;SDS011;7090;49.436;8.490;2023-11-19T02:37:56;2.00;;;1.90;;
14030;SDS011;7090;49.436;8.490;2023-11-19T02:40:24;1.90;;;1.80;;
14030;SDS011;7090;49.436;8.490;2023-11-19T02:42:50;2.20;;;2.10;;
14030;SDS011;7090;49.436;8.490;2023-11-19T02:45:17;2.30;;;2.20;;
14030;SDS011;7090;49.436;8.490;2023-11-19T02:47:43;2.40;;;2.30;;
14030;SDS011;7090;49.436;8.490;2023-11-19T02:50:12;2.30;;;2.20;;
14030;SDS011;7090;49.436;8.490;2023-11-19T02:55:07;2.00;;;1.90;;
14030;SDS011;7090;49.436;8.490;2023-11-19T02:57:38;2.50;;;2.40;;
14030;SDS011;7090;49.436;8.490;2023-11-19T03:00:11;2.43;;;2.33;;
14030;SDS011;7090;49.436;8.490;2023-11-19T03:02:43;2.07;;;1.97;;
14030;SDS011;7090;49.436;8.490;2023-11-19T03:05:13;2.07;;;1.90;;
14030;SDS011;7090;49.436;8.490;2023-11-19T03:07:43;2.40;;;2.20;;
14030;SDS011;7090;49.436;8.490;2023-11-19T03:10:09;1.70;;;1.70;;
14030;SDS011;7090;49.436;8.490;2023-11-19T03:12:39;2.00;;;1.90;;
14030;SDS011;7090;49.436;8.490;2023-11-19T03:15:05;2.10;;;2.00;;
14030;SDS011;7090;49.436;8.490;2023-11-19T03:17:32;2.03;;;1.93;;
14030;SDS011;7090;49.436;8.490;2023-11-19T03:19:59;2.07;;;1.97;;
14030;SDS011;7090;49.436;8.490;2023-11-19T03:22:26;1.90;;;1.80;;
14030;SDS011;7090;49.436;8.490;2023-11-19T03:24:51;1.90;;;1.80;;
14030;SDS011;7090;49.436;8.490;2023-11-19T03:27:17;1.90;;;1.80;;
14030;SDS011;7090;49.436;8.490;2023-11-19T03:29:42;1.67;;;1.67;;
14030;SDS011;7090;49.436;8.490;2023-11-19T03:32:08;1.90;;;1.80;;
14030;SDS011;7090;49.436;8.490;2023-11-19T03:34:34;2.20;;;2.10;;
14030;SDS011;7090;49.436;8.490;2023-11-19T03:36:59;1.93;;;1.83;;
14030;SDS011;7090;49.436;8.490;2023-11-19T03:39:25;1.83;;;1.73;;
14030;SDS011;7090;49.436;8.490;2023-11-19T03:41:52;1.90;;;1.80;;
14030;SDS011;7090;49.436;8.490;2023-11-19T03:44:17;1.80;;;1.70;;
14030;SDS011;7090;49.436;8.490;2023-11-19T03:46:44;1.70;;;1.60;;
14030;SDS011;7090;49.436;8.490;2023-11-19T03:49:09;2.60;;;2.27;;
14030;SDS011;7090;49.436;8.490;2023-11-19T03:51:37;1.90;;;1.80;;
14030;SDS011;7090;49.436;8.490;2023-11-19T03:54:02;2.83;;;2.30;;
14030;SDS011;7090;49.436;8.490;2023-11-19T03:56:28;1.87;;;1.67;;
14030;SDS011;7090;49.436;8.490;2023-11-19T03:58:56;1.90;;;1.80;;
14030;SDS011;7090;49.436;8.490;2023-11-19T04:01:21;2.33;;;2.13;;
14030;SDS011;7090;49.436;8.490;2023-11-19T04:03:47;1.50;;;1.40;;
14030;SDS011;7090;49.436;8.490;2023-11-19T04:06:12;2.50;;;2.30;;
14030;SDS011;7090;49.436;8.490;2023-11-19T04:08:38;2.43;;;2.23;;
14030;SDS011;7090;49.436;8.490;2023-11-19T04:11:04;1.70;;;1.60;;
14030;SDS011;7090;49.436;8.490;2023-11-19T04:13:30;1.90;;;1.80;;
14030;SDS011;7090;49.436;8.490;2023-11-19T04:15:56;2.10;;;2.00;;
14030;SDS011;7090;49.436;8.490;2023-11-19T04:18:21;2.30;;;2.10;;
14030;SDS011;7090;49.436;8.490;2023-11-19T04:20:47;2.43;;;2.30;;
14030;SDS011;7090;49.436;8.490;2023-11-19T04:23:12;1.80;;;1.70;;
14030;SDS011;7090;49.436;8.490;2023-11-19T04:25:38;2.70;;;2.23;;
14030;SDS011;7090;49.436;8.490;2023-11-19T04:28:03;2.20;;;2.10;;
14030;SDS011;7090;49.436;8.490;2023-11-19T04:30:29;1.40;;;1.40;;
14030;SDS011;7090;49.436;8.490;2023-11-19T04:32:56;2.27;;;2.07;;
14030;SDS011;7090;49.436;8.490;2023-11-19T04:35:22;1.93;;;1.83;;
14030;SDS011;7090;49.436;8.490;2023-11-19T04:37:48;1.77;;;1.67;;
14030;SDS011;7090;49.436;8.490;2023-11-19T04:40:14;1.60;;;1.50;;
14030;SDS011;7090;49.436;8.490;2023-11-19T04:42:39;1.77;;;1.67;;
14030;SDS011;7090;49.436;8.490;2023-11-19T04:45:05;1.83;;;1.73;;
14030;SDS011;7090;49.436;8.490;2023-11-19T04:47:32;1.13;;;1.13;;
14030;SDS011;7090;49.436;8.490;2023-11-19T04:49:59;1.47;;;1.37;;
14030;SDS011;7090;49.436;8.490;2023-11-19T04:52:24;1.20;;;1.20;;
14030;SDS011;7090;49.436;8.490;2023-11-19T04:54:50;1.57;;;1.47;;
14030;SDS011;7090;49.436;8.490;2023-11-19T04:57:16;2.47;;;1.53;;
14030;SDS011;7090;49.436;8.490;2023-11-19T04:59:42;1.80;;;1.70;;
14030;SDS011;7090;49.436;8.490;2023-11-19T05:02:08;1.50;;;1.40;;
14030;SDS011;7090;49.436;8.490;2023-11-19T05:04:34;2.10;;;1.90;;
14030;SDS011;7090;49.436;8.490;2023-11-19T05:07:00;2.13;;;1.87;;
14030;SDS011;7090;49.436;8.490;2023-11-19T05:09:25;1.77;;;1.67;;
14030;SDS011;7090;49.436;8.490;2023-11-19T05:11:51;2.20;;;2.00;;
14030;SDS011;7090;49.436;8.490;2023-11-19T05:14:17;1.93;;;1.83;;
14030;SDS011;7090;49.436;8.490;2023-11-19T05:16:45;1.60;;;1.50;;
14030;SDS011;7090;49.436;8.490;2023-11-19T05:19:11;1.73;;;1.63;;
14030;SDS011;7090;49.436;8.490;2023-11-19T05:21:37;1.70;;;1.60;;
14030;SDS011;7090;49.436;8.490;2023-11-19T05:24:02;1.60;;;1.50;;
14030;SDS011;7090;49.436;8.490;2023-11-19T05:26:31;1.40;;;1.40;;
14030;SDS011;7090;49.436;8.490;2023-11-19T05:28:57;1.93;;;1.83;;
14030;SDS011;7090;49.436;8.490;2023-11-19T05:31:22;2.20;;;2.00;;
14030;SDS011;7090;49.436;8.490;2023-11-19T05:33:48;1.73;;;1.63;;
14030;SDS011;7090;49.436;8.490;2023-11-19T05:36:13;1.30;;;1.30;;
14030;SDS011;7090;49.436;8.490;2023-11-19T05:38:39;2.30;;;1.93;;
14030;SDS011;7090;49.436;8.490;2023-11-19T05:41:05;2.20;;;1.73;;
14030;SDS011;7090;49.436;8.490;2023-11-19T05:43:31;1.50;;;1.50;;
14030;SDS011;7090;49.436;8.490;2023-11-19T05:45:57;1.13;;;1.13;;
14030;SDS011;7090;49.436;8.490;2023-11-19T05:48:24;1.90;;;1.80;;
14030;SDS011;7090;49.436;8.490;2023-11-19T05:50:51;1.33;;;1.30;;
14030;SDS011;7090;49.436;8.490;2023-11-19T05:53:17;2.07;;;1.97;;
14030;SDS011;7090;49.436;8.490;2023-11-19T05:55:42;1.93;;;1.83;;
14030;SDS011;7090;49.436;8.490;2023-11-19T05:58:14;1.60;;;1.50;;
14030;SDS011;7090;49.436;8.490;2023-11-19T06:00:40;1.73;;;1.63;;
14030;SDS011;7090;49.436;8.490;2023-11-19T06:03:09;1.90;;;1.73;;
14030;SDS011;7090;49.436;8.490;2023-11-19T06:05:35;1.97;;;1.87;;
14030;SDS011;7090;49.436;8.490;2023-11-19T06:08:00;2.67;;;2.47;;
14030;SDS011;7090;49.436;8.490;2023-11-19T06:10:26;1.60;;;1.50;;
14030;SDS011;7090;49.436;8.490;2023-11-19T06:12:57;2.87;;;1.83;;
14030;SDS011;7090;49.436;8.490;2023-11-19T06:15:24;4.30;;;2.70;;
14030;SDS011;7090;49.436;8.490;2023-11-19T06:17:53;2.33;;;2.13;;
14030;SDS011;7090;49.436;8.490;2023-11-19T06:20:20;1.97;;;1.87;;
14030;SDS011;7090;49.436;8.490;2023-11-19T06:22:45;1.93;;;1.80;;
14030;SDS011;7090;49.436;8.490;2023-11-19T06:25:12;2.00;;;1.90;;
14030;SDS011;7090;49.436;8.490;2023-11-19T06:27:39;2.30;;;2.10;;
14030;SDS011;7090;49.436;8.490;2023-11-19T06:30:06;2.27;;;2.07;;
14030;SDS011;7090;49.436;8.490;2023-11-19T06:32:32;1.97;;;1.87;;
14030;SDS011;7090;49.436;8.490;2023-11-19T06:34:57;1.53;;;1.43;;
14030;SDS011;7090;49.436;8.490;2023-11-19T06:37:23;1.80;;;1.70;;
14030;SDS011;7090;49.436;8.490;2023-11-19T06:39:49;2.50;;;2.00;;
14030;SDS011;7090;49.436;8.490;2023-11-19T06:42:14;2.87;;;2.20;;
14030;SDS011;7090;49.436;8.490;2023-11-19T06:44:40;2.40;;;2.10;;
14030;SDS011;7090;49.436;8.490;2023-11-19T06:47:05;2.13;;;2.03;;
14030;SDS011;7090;49.436;8.490;2023-11-19T06:49:31;2.30;;;2.10;;
14030;SDS011;7090;49.436;8.490;2023-11-19T06:51:58;3.00;;;1.70;;
14030;SDS011;7090;49.436;8.490;2023-11-19T06:54:24;1.83;;;1.73;;
14030;SDS011;7090;49.436;8.490;2023-11-19T06:56:50;1.90;;;1.80;;
14030;SDS011;7090;49.436;8.490;2023-11-19T06:59:16;1.87;;;1.77;;
14030;SDS011;7090;49.436;8.490;2023-11-19T07:01:41;2.00;;;1.90;;
14030;SDS011;7090;49.436;8.490;2023-11-19T07:04:10;2.00;;;1.90;;
14030;SDS011;7090;49.436;8.490;2023-11-19T07:06:37;2.53;;;1.90;;
14030;SDS011;7090;49.436;8.490;2023-11-19T07:09:06;1.83;;;1.53;;
14030;SDS011;7090;49.436;8.490;2023-11-19T07:11:38;2.00;;;1.90;;
14030;SDS011;7090;49.436;8.490;2023-11-19T07:14:04;1.50;;;1.40;;
14030;SDS011;7090;49.436;8.490;2023-11-19T07:16:34;2.10;;;2.00;;
14030;SDS011;7090;49.436;8.490;2023-11-19T07:19:02;2.40;;;2.20;;
14030;SDS011;7090;49.436;8.490;2023-11-19T07:21:28;2.55;;;2.45;;
14030;SDS011;7090;49.436;8.490;2023-11-19T07:23:54;3.20;;;3.00;;
14030;SDS011;7090;49.436;8.490;2023-11-19T07:26:20;3.20;;;2.90;;
14030;SDS011;7090;49.436;8.490;2023-11-19T07:28:47;3.43;;;3.23;;
14030;SDS011;7090;49.436;8.490;2023-11-19T07:31:12;2.77;;;2.67;;
14030;SDS011;7090;49.436;8.490;2023-11-19T07:33:39;3.07;;;2.90;;
14030;SDS011;7090;49.436;8.490;2023-11-19T07:36:07;2.70;;;2.57;;
14030;SDS011;7090;49.436;8.490;2023-11-19T07:38:33;3.05;;;2.85;;
14030;SDS011;7090;49.436;8.490;2023-11-19T07:40:59;2.90;;;2.80;;
14030;SDS011;7090;49.436;8.490;2023-11-19T07:43:26;2.50;;;2.40;;
14030;SDS011;7090;49.436;8.490;2023-11-19T07:45:51;2.33;;;2.23;;
14030;SDS011;7090;49.436;8.490;2023-11-19T07:48:17;2.23;;;2.10;;
14030;SDS011;7090;49.436;8.490;2023-11-19T07:50:47;2.23;;;1.70;;
14030;SDS011;7090;49.436;8.490;2023-11-19T07:53:15;1.77;;;1.67;;
14030;SDS011;7090;49.436;8.490;2023-11-19T07:55:41;1.47;;;1.47;;
14030;SDS011;7090;49.436;8.490;2023-11-19T07:58:07;0.90;;;0.90;;
14030;SDS011;7090;49.436;8.490;2023-11-19T08:00:32;1.70;;;1.60;;
14030;SDS011;7090;49.436;8.490;2023-11-19T08:02:58;1.30;;;1.30;;
14030;SDS011;7090;49.436;8.490;2023-11-19T08:05:23;1.37;;;1.27;;
14030;SDS011;7090;49.436;8.490;2023-11-19T08:07:52;2.50;;;1.70;;
14030;SDS011;7090;49.436;8.490;2023-11-19T08:10:18;1.40;;;1.30;;
14030;SDS011;7090;49.436;8.490;2023-11-19T08:12:44;2.83;;;1.40;;
14030;SDS011;7090;49.436;8.490;2023-11-19T08:15:10;1.57;;;1.20;;
14030;SDS011;7090;49.436;8.490;2023-11-19T08:17:36;0.87;;;0.87;;
14030;SDS011;7090;49.436;8.490;2023-11-19T08:20:02;1.23;;;1.13;;
14030;SDS011;7090;49.436;8.490;2023-11-19T08:22:29;1.90;;;1.30;;
14030;SDS011;7090;49.436;8.490;2023-11-19T08:24:55;0.90;;;0.90;;
14030;SDS011;7090;49.436;8.490;2023-11-19T08:27:21;1.30;;;1.20;;
14030;SDS011;7090;49.436;8.490;2023-11-19T08:29:53;2.07;;;1.60;;
14030;SDS011;7090;49.436;8.490;2023-11-19T08:32:20;1.67;;;1.57;;
14030;SDS011;7090;49.436;8.490;2023-11-19T08:34:46;1.53;;;1.43;;
14030;SDS011;7090;49.436;8.490;2023-11-19T08:37:11;1.00;;;1.00;;
14030;SDS011;7090;49.436;8.490;2023-11-19T08:39:38;1.20;;;1.20;;
14030;SDS011;7090;49.436;8.490;2023-11-19T08:42:03;2.00;;;1.90;;
14030;SDS011;7090;49.436;8.490;2023-11-19T08:44:29;2.17;;;2.07;;
14030;SDS011;7090;49.436;8.490;2023-11-19T08:46:55;3.22;;;2.85;;
14030;SDS011;7090;49.436;8.490;2023-11-19T08:49:20;5.35;;;4.40;;
14030;SDS011;7090;49.436;8.490;2023-11-19T08:51:46;6.18;;;5.82;;
14030;SDS011;7090;49.436;8.490;2023-11-19T08:54:11;6.93;;;6.68;;
14030;SDS011;7090;49.436;8.490;2023-11-19T08:56:38;7.35;;;7.05;;
14030;SDS011;7090;49.436;8.490;2023-11-19T08:59:04;7.18;;;6.88;;
14030;SDS011;7090;49.436;8.490;2023-11-19T09:01:30;6.70;;;6.40;;
14030;SDS011;7090;49.436;8.490;2023-11-19T09:03:56;6.90;;;6.60;;
14030;SDS011;7090;49.436;8.490;2023-11-19T09:06:22;6.53;;;6.30;;
14030;SDS011;7090;49.436;8.490;2023-11-19T09:08:48;6.22;;;6.03;;
14030;SDS011;7090;49.436;8.490;2023-11-19T09:11:13;6.75;;;6.20;;
14030;SDS011;7090;49.436;8.490;2023-11-19T09:13:39;6.57;;;6.00;;
14030;SDS011;7090;49.436;8.490;2023-11-19T09:16:05;6.30;;;6.10;;
14030;SDS011;7090;49.436;8.490;2023-11-19T09:18:31;7.80;;;7.10;;
14030;SDS011;7090;49.436;8.490;2023-11-19T09:20:57;7.50;;;7.10;;
14030;SDS011;7090;49.436;8.490;2023-11-19T09:23:23;7.03;;;6.75;;
14030;SDS011;7090;49.436;8.490;2023-11-19T09:25:50;6.90;;;6.70;;
14030;SDS011;7090;49.436;8.490;2023-11-19T09:28:16;6.88;;;6.47;;
14030;SDS011;7090;49.436;8.490;2023-11-19T09:30:41;6.90;;;6.50;;
14030;SDS011;7090;49.436;8.490;2023-11-19T09:33:07;6.20;;;5.90;;
14030;SDS011;7090;49.436;8.490;2023-11-19T09:35:33;6.07;;;5.68;;
14030;SDS011;7090;49.436;8.490;2023-11-19T09:37:58;5.20;;;5.00;;
14030;SDS011;7090;49.436;8.490;2023-11-19T09:40:24;6.10;;;5.70;;
14030;SDS011;7090;49.436;8.490;2023-11-19T09:42:50;5.60;;;5.40;;
14030;SDS011;7090;49.436;8.490;2023-11-19T09:45:16;6.00;;;5.30;;
14030;SDS011;7090;49.436;8.490;2023-11-19T09:47:43;5.07;;;4.78;;
14030;SDS011;7090;49.436;8.490;2023-11-19T09:50:11;6.10;;;5.80;;
14030;SDS011;7090;49.436;8.490;2023-11-19T09:52:40;6.93;;;6.35;;
14030;SDS011;7090;49.436;8.490;2023-11-19T09:55:06;6.20;;;5.90;;
14030;SDS011;7090;49.436;8.490;2023-11-19T09:57:32;6.70;;;6.40;;
14030;SDS011;7090;49.436;8.490;2023-11-19T09:59:59;7.30;;;6.90;;
14030;SDS011;7090;49.436;8.490;2023-11-19T10:02:26;6.32;;;6.07;;
14030;SDS011;7090;49.436;8.490;2023-11-19T10:04:54;6.00;;;5.70;;
14030;SDS011;7090;49.436;8.490;2023-11-19T10:07:20;6.35;;;6.00;;
14030;SDS011;7090;49.436;8.490;2023-11-19T10:09:46;5.90;;;5.60;;
14030;SDS011;7090;49.436;8.490;2023-11-19T10:12:12;6.53;;;6.22;;
14030;SDS011;7090;49.436;8.490;2023-11-19T10:14:38;6.07;;;5.78;;
14030;SDS011;7090;49.436;8.490;2023-11-19T10:17:07;6.10;;;5.70;;
14030;SDS011;7090;49.436;8.490;2023-11-19T10:19:33;5.72;;;5.53;;
14030;SDS011;7090;49.436;8.490;2023-11-19T10:22:03;6.28;;;5.70;;
14030;SDS011;7090;49.436;8.490;2023-11-19T10:24:33;5.70;;;5.40;;
14030;SDS011;7090;49.436;8.490;2023-11-19T10:27:01;5.40;;;5.20;;
14030;SDS011;7090;49.436;8.490;2023-11-19T10:29:29;5.40;;;5.20;;
14030;SDS011;7090;49.436;8.490;2023-11-19T10:31:55;5.25;;;5.00;;
14030;SDS011;7090;49.436;8.490;2023-11-19T10:34:25;5.68;;;5.43;;
14030;SDS011;7090;49.436;8.490;2023-11-19T10:36:51;5.80;;;5.50;;
14030;SDS011;7090;49.436;8.490;2023-11-19T10:39:17;5.43;;;5.22;;
14030;SDS011;7090;49.436;8.490;2023-11-19T10:41:43;5.07;;;4.85;;
14030;SDS011;7090;49.436;8.490;2023-11-19T10:44:09;5.75;;;5.55;;
14030;SDS011;7090;49.436;8.490;2023-11-19T10:46:38;5.78;;;5.47;;
14030;SDS011;7090;49.436;8.490;2023-11-19T10:49:05;5.10;;;4.90;;
14030;SDS011;7090;49.436;8.490;2023-11-19T10:51:31;5.47;;;5.18;;
14030;SDS011;7090;49.436;8.490;2023-11-19T10:54:02;5.78;;;5.43;;
14030;SDS011;7090;49.436;8.490;2023-11-19T10:56:31;5.22;;;5.03;;
14030;SDS011;7090;49.436;8.490;2023-11-19T10:58:58;6.00;;;5.70;;
14030;SDS011;7090;49.436;8.490;2023-11-19T11:01:33;5.30;;;5.10;;
14030;SDS011;7090;49.436;8.490;2023-11-19T11:04:10;5.43;;;5.22;;
14030;SDS011;7090;49.436;8.490;2023-11-19T11:06:40;5.75;;;5.38;;
14030;SDS011;7090;49.436;8.490;2023-11-19T11:09:06;5.38;;;5.07;;
14030;SDS011;7090;49.436;8.490;2023-11-19T11:11:37;4.85;;;4.65;;
14030;SDS011;7090;49.436;8.490;2023-11-19T11:14:04;5.10;;;4.90;;
14030;SDS011;7090;49.436;8.490;2023-11-19T11:16:30;5.55;;;5.35;;
14030;SDS011;7090;49.436;8.490;2023-11-19T11:18:56;5.22;;;5.03;;
14030;SDS011;7090;49.436;8.490;2023-11-19T11:21:24;5.22;;;5.03;;
14030;SDS011;7090;49.436;8.490;2023-11-19T11:33:17;7.85;;;7.28;;
14030;SDS011;7090;49.436;8.490;2023-11-19T11:38:44;5.82;;;5.38;;
14030;SDS011;7090;49.436;8.490;2023-11-19T11:43:44;4.40;;;4.10;;
14030;SDS011;7090;49.436;8.490;2023-11-19T11:49:07;4.50;;;4.30;;
14030;SDS011;7090;49.436;8.490;2023-11-19T11:54:08;5.30;;;4.57;;
14030;SDS011;7090;49.436;8.490;2023-11-19T11:56:36;4.50;;;4.30;;
14030;SDS011;7090;49.436;8.490;2023-11-19T11:59:19;6.60;;;4.20;;
14030;SDS011;7090;49.436;8.490;2023-11-19T12:01:57;4.90;;;4.70;;
14030;SDS011;7090;49.436;8.490;2023-11-19T12:04:26;5.05;;;4.65;;
14030;SDS011;7090;49.436;8.490;2023-11-19T12:07:06;4.50;;;4.30;;
14030;SDS011;7090;49.436;8.490;2023-11-19T12:09:40;4.63;;;4.22;;
14030;SDS011;7090;49.436;8.490;2023-11-19T12:12:19;4.22;;;4.03;;
14030;SDS011;7090;49.436;8.490;2023-11-19T12:15:03;4.07;;;3.97;;
14030;SDS011;7090;49.436;8.490;2023-11-19T12:20:03;4.03;;;3.83;;
14030;SDS011;7090;49.436;8.490;2023-11-19T12:22:33;4.15;;;3.75;;
14030;SDS011;7090;49.436;8.490;2023-11-19T12:25:09;4.25;;;4.05;;
14030;SDS011;7090;49.436;8.490;2023-11-19T12:27:37;4.60;;;4.40;;
14030;SDS011;7090;49.436;8.490;2023-11-19T12:30:08;5.00;;;4.80;;
14030;SDS011;7090;49.436;8.490;2023-11-19T12:32:37;5.00;;;4.80;;
14030;SDS011;7090;49.436;8.490;2023-11-19T12:35:04;4.50;;;4.40;;
14030;SDS011;7090;49.436;8.490;2023-11-19T12:37:29;5.80;;;5.43;;
14030;SDS011;7090;49.436;8.490;2023-11-19T12:39:56;5.30;;;5.00;;
14030;SDS011;7090;49.436;8.490;2023-11-19T12:42:44;5.32;;;4.90;;
14030;SDS011;7090;49.436;8.490;2023-11-19T12:45:15;4.60;;;4.50;;
14030;SDS011;7090;49.436;8.490;2023-11-19T12:47:45;5.35;;;5.15;;
14030;SDS011;7090;49.436;8.490;2023-11-19T12:50:14;6.00;;;5.70;;
14030;SDS011;7090;49.436;8.490;2023-11-19T12:52:43;7.03;;;6.60;;
14030;SDS011;7090;49.436;8.490;2023-11-19T12:55:25;6.45;;;6.05;;
14030;SDS011;7090;49.436;8.490;2023-11-19T12:57:52;6.43;;;6.03;;
14030;SDS011;7090;49.436;8.490;2023-11-19T13:00:20;5.55;;;5.32;;
14030;SDS011;7090;49.436;8.490;2023-11-19T13:02:51;5.95;;;5.55;;
14030;SDS011;7090;49.436;8.490;2023-11-19T13:05:33;5.60;;;5.40;;
14030;SDS011;7090;49.436;8.490;2023-11-19T13:10:25;5.90;;;5.45;;
14030;SDS011;7090;49.436;8.490;2023-11-19T13:15:33;5.80;;;5.30;;
14030;SDS011;7090;49.436;8.490;2023-11-19T13:18:02;5.72;;;5.32;;
14030;SDS011;7090;49.436;8.490;2023-11-19T13:20:28;5.38;;;5.07;;
14030;SDS011;7090;49.436;8.490;2023-11-19T13:23:00;5.70;;;5.30;;
14030;SDS011;7090;49.436;8.490;2023-11-19T13:25:28;5.50;;;5.13;;
14030;SDS011;7090;49.436;8.490;2023-11-19T13:27:54;5.47;;;5.18;;
14030;SDS011;7090;49.436;8.490;2023-11-19T13:30:21;5.40;;;5.10;;
14030;SDS011;7090;49.436;8.490;2023-11-19T13:32:47;5.68;;;5.35;;
14030;SDS011;7090;49.436;8.490;2023-11-19T13:35:14;6.00;;;5.70;;
14030;SDS011;7090;49.436;8.490;2023-11-19T13:37:40;5.40;;;5.20;;
14030;SDS011;7090;49.436;8.490;2023-11-19T13:40:08;6.00;;;5.72;;
14030;SDS011;7090;49.436;8.490;2023-11-19T13:42:37;6.60;;;6.13;;
14030;SDS011;7090;49.436;8.490;2023-11-19T13:45:06;5.65;;;5.35;;
14030;SDS011;7090;49.436;8.490;2023-11-19T13:47:35;5.50;;;5.30;;
14030;SDS011;7090;49.436;8.490;2023-11-19T13:50:01;6.22;;;5.57;;
14030;SDS011;7090;49.436;8.490;2023-11-19T13:52:31;5.60;;;5.30;;
14030;SDS011;7090;49.436;8.490;2023-11-19T13:54:56;5.90;;;5.60;;
14030;SDS011;7090;49.436;8.490;2023-11-19T13:57:22;6.18;;;5.88;;
14030;SDS011;7090;49.436;8.490;2023-11-19T13:59:47;7.43;;;5.50;;
14030;SDS011;7090;49.436;8.490;2023-11-19T14:02:13;7.28;;;5.03;;
14030;SDS011;7090;49.436;8.490;2023-11-19T14:04:38;5.30;;;5.10;;
14030;SDS011;7090;49.436;8.490;2023-11-19T14:07:04;4.90;;;4.80;;
14030;SDS011;7090;49.436;8.490;2023-11-19T14:09:30;4.80;;;4.70;;
14030;SDS011;7090;49.436;8.490;2023-11-19T14:11:55;5.60;;;5.15;;
14030;SDS011;7090;49.436;8.490;2023-11-19T14:14:21;6.07;;;5.60;;
14030;SDS011;7090;49.436;8.490;2023-11-19T14:16:46;5.85;;;5.32;;
14030;SDS011;7090;49.436;8.490;2023-11-19T14:19:12;5.80;;;5.57;;
14030;SDS011;7090;49.436;8.490;2023-11-19T14:21:38;5.43;;;5.15;;
14030;SDS011;7090;49.436;8.490;2023-11-19T14:24:04;5.75;;;5.50;;
14030;SDS011;7090;49.436;8.490;2023-11-19T14:26:30;6.00;;;5.70;;
14030;SDS011;7090;49.436;8.490;2023-11-19T14:28:56;5.50;;;5.30;;
14030;SDS011;7090;49.436;8.490;2023-11-19T14:31:21;5.10;;;4.90;;
14030;SDS011;7090;49.436;8.490;2023-11-19T14:33:47;5.75;;;5.25;;
14030;SDS011;7090;49.436;8.490;2023-11-19T14:36:13;5.45;;;5.18;;
14030;SDS011;7090;49.436;8.490;2023-11-19T14:38:39;5.47;;;5.25;;
14030;SDS011;7090;49.436;8.490;2023-11-19T14:41:05;5.57;;;5.30;;
14030;SDS011;7090;49.436;8.490;2023-11-19T14:43:31;5.10;;;4.90;;
14030;SDS011;7090;49.436;8.490;2023-11-19T14:45:56;5.57;;;5.18;;
14030;SDS011;7090;49.436;8.490;2023-11-19T14:48:22;5.18;;;4.97;;
14030;SDS011;7090;49.436;8.490;2023-11-19T14:50:48;4.63;;;4.43;;
14030;SDS011;7090;49.436;8.490;2023-11-19T14:53:14;5.35;;;4.93;;
14030;SDS011;7090;49.436;8.490;2023-11-19T14:55:40;5.47;;;5.10;;
14030;SDS011;7090;49.436;8.490;2023-11-19T14:58:06;5.88;;;5.47;;
14030;SDS011;7090;49.436;8.490;2023-11-19T15:00:32;5.13;;;4.82;;
14030;SDS011;7090;49.436;8.490;2023-11-19T15:02:58;5.18;;;4.97;;
14030;SDS011;7090;49.436;8.490;2023-11-19T15:05:24;5.55;;;5.25;;
14030;SDS011;7090;49.436;8.490;2023-11-19T15:07:50;5.15;;;4.95;;
14030;SDS011;7090;49.436;8.490;2023-11-19T15:10:15;5.22;;;5.03;;
14030;SDS011;7090;49.436;8.490;2023-11-19T15:12:41;4.80;;;4.60;;
14030;SDS011;7090;49.436;8.490;2023-11-19T15:15:08;5.50;;;5.00;;
14030;SDS011;7090;49.436;8.490;2023-11-19T15:17:40;5.00;;;4.60;;
14030;SDS011;7090;49.436;8.490;2023-11-19T15:20:06;4.55;;;4.45;;
14030;SDS011;7090;49.436;8.490;2023-11-19T15:22:32;4.30;;;4.20;;
14030;SDS011;7090;49.436;8.490;2023-11-19T15:24:58;4.60;;;4.40;;
14030;SDS011;7090;49.436;8.490;2023-11-19T15:27:23;4.47;;;4.28;;
14030;SDS011;7090;49.436;8.490;2023-11-19T15:29:49;4.10;;;4.00;;